sensor_id;sensor_type;location;lat;lon;timestamp;P1;durP1;ratioP1;P2;durP2;ratioP2
12846;SDS011;6492;48.128;8.320;2024-02-23T00:00:26;0.10;;;0.10;;
12846;SDS011;6492;48.128;8.320;2024-02-23T00:04:27;0.10;;;0.10;;
12846;SDS011;6492;48.128;8.320;2024-02-23T00:08:29;0.13;;;0.13;;
12846;SDS011;6492;48.128;8.320;2024-02-23T00:12:32;0.07;;;0.07;;
12846;SDS011;6492;48.128;8.320;2024-02-23T00:16:37;0.10;;;0.10;;
12846;SDS011;6492;48.128;8.320;2024-02-23T00:20:39;0.27;;;0.10;;
12846;SDS011;6492;48.128;8.320;2024-02-23T00:24:41;0.20;;;0.20;;
12846;SDS011;6492;48.128;8.320;2024-02-23T00:28:44;0.23;;;0.23;;
12846;SDS011;6492;48.128;8.320;2024-02-23T00:37:25;0.20;;;0.20;;
12846;SDS011;6492;48.128;8.320;2024-02-23T00:41:27;1.63;;;0.97;;
12846;SDS011;6492;48.128;8.320;2024-02-23T00:45:30;1.17;;;0.30;;
12846;SDS011;6492;48.128;8.320;2024-02-23T00:49:32;0.53;;;0.53;;
12846;SDS011;6492;48.128;8.320;2024-02-23T00:53:33;2.27;;;0.57;;
12846;SDS011;6492;48.128;8.320;2024-02-23T00:57:35;1.50;;;0.50;;
12846;SDS011;6492;48.128;8.320;2024-02-23T01:01:38;1.57;;;0.50;;
12846;SDS011;6492;48.128;8.320;2024-02-23T01:05:40;1.30;;;0.50;;
12846;SDS011;6492;48.128;8.320;2024-02-23T01:09:42;1.50;;;0.60;;
12846;SDS011;6492;48.128;8.320;2024-02-23T01:13:44;3.17;;;0.80;;
12846;SDS011;6492;48.128;8.320;2024-02-23T01:17:47;1.13;;;0.67;;
12846;SDS011;6492;48.128;8.320;2024-02-23T01:21:57;1.50;;;0.70;;
12846;SDS011;6492;48.128;8.320;2024-02-23T01:26:00;1.33;;;0.47;;
12846;SDS011;6492;48.128;8.320;2024-02-23T01:30:02;0.63;;;0.50;;
12846;SDS011;6492;48.128;8.320;2024-02-23T01:34:06;0.60;;;0.60;;
12846;SDS011;6492;48.128;8.320;2024-02-23T01:38:08;1.03;;;0.83;;
12846;SDS011;6492;48.128;8.320;2024-02-23T01:42:10;0.90;;;0.70;;
12846;SDS011;6492;48.128;8.320;2024-02-23T01:46:11;1.00;;;0.57;;
12846;SDS011;6492;48.128;8.320;2024-02-23T01:50:18;1.63;;;0.70;;
12846;SDS011;6492;48.128;8.320;2024-02-23T01:54:19;1.47;;;1.10;;
12846;SDS011;6492;48.128;8.320;2024-02-23T01:58:21;1.07;;;1.00;;
12846;SDS011;6492;48.128;8.320;2024-02-23T02:02:23;0.63;;;0.63;;
12846;SDS011;6492;48.128;8.320;2024-02-23T02:06:26;0.80;;;0.80;;
12846;SDS011;6492;48.128;8.320;2024-02-23T02:10:28;1.80;;;0.80;;
12846;SDS011;6492;48.128;8.320;2024-02-23T02:14:30;1.17;;;0.73;;
12846;SDS011;6492;48.128;8.320;2024-02-23T02:18:35;5.50;;;1.13;;
12846;SDS011;6492;48.128;8.320;2024-02-23T02:22:38;2.77;;;1.10;;
12846;SDS011;6492;48.128;8.320;2024-02-23T02:26:40;3.50;;;0.97;;
12846;SDS011;6492;48.128;8.320;2024-02-23T02:30:43;2.30;;;0.80;;
12846;SDS011;6492;48.128;8.320;2024-02-23T02:34:48;2.40;;;0.97;;
12846;SDS011;6492;48.128;8.320;2024-02-23T02:38:51;1.53;;;1.00;;
12846;SDS011;6492;48.128;8.320;2024-02-23T02:42:52;3.63;;;0.90;;
12846;SDS011;6492;48.128;8.320;2024-02-23T02:46:54;3.87;;;1.00;;
12846;SDS011;6492;48.128;8.320;2024-02-23T02:50:56;1.60;;;0.93;;
12846;SDS011;6492;48.128;8.320;2024-02-23T02:54:59;1.17;;;0.90;;
12846;SDS011;6492;48.128;8.320;2024-02-23T02:59:01;0.70;;;0.70;;
12846;SDS011;6492;48.128;8.320;2024-02-23T03:03:02;2.70;;;1.00;;
12846;SDS011;6492;48.128;8.320;2024-02-23T03:07:04;2.43;;;0.93;;
12846;SDS011;6492;48.128;8.320;2024-02-23T03:11:07;1.47;;;0.87;;
12846;SDS011;6492;48.128;8.320;2024-02-23T03:15:09;1.97;;;1.07;;
12846;SDS011;6492;48.128;8.320;2024-02-23T03:19:11;2.17;;;1.13;;
12846;SDS011;6492;48.128;8.320;2024-02-23T03:23:13;1.80;;;0.97;;
12846;SDS011;6492;48.128;8.320;2024-02-23T03:27:16;2.90;;;0.80;;
12846;SDS011;6492;48.128;8.320;2024-02-23T03:31:18;0.87;;;0.80;;
12846;SDS011;6492;48.128;8.320;2024-02-23T03:35:20;1.20;;;0.87;;
12846;SDS011;6492;48.128;8.320;2024-02-23T03:39:26;2.23;;;0.80;;
12846;SDS011;6492;48.128;8.320;2024-02-23T03:43:30;0.93;;;0.90;;
12846;SDS011;6492;48.128;8.320;2024-02-23T03:47:31;2.83;;;1.30;;
12846;SDS011;6492;48.128;8.320;2024-02-23T03:51:33;1.20;;;0.87;;
12846;SDS011;6492;48.128;8.320;2024-02-23T03:55:36;1.27;;;1.00;;
12846;SDS011;6492;48.128;8.320;2024-02-23T03:59:39;1.23;;;1.03;;
12846;SDS011;6492;48.128;8.320;2024-02-23T04:03:41;0.80;;;0.80;;
12846;SDS011;6492;48.128;8.320;2024-02-23T04:07:43;3.37;;;1.13;;
12846;SDS011;6492;48.128;8.320;2024-02-23T04:11:46;3.47;;;0.87;;
12846;SDS011;6492;48.128;8.320;2024-02-23T04:15:50;3.70;;;1.10;;
12846;SDS011;6492;48.128;8.320;2024-02-23T04:19:51;2.10;;;1.17;;
12846;SDS011;6492;48.128;8.320;2024-02-23T04:23:53;1.57;;;0.90;;
12846;SDS011;6492;48.128;8.320;2024-02-23T04:27:55;1.23;;;0.87;;
12846;SDS011;6492;48.128;8.320;2024-02-23T04:31:59;1.37;;;1.03;;
12846;SDS011;6492;48.128;8.320;2024-02-23T04:36:01;1.50;;;1.00;;
12846;SDS011;6492;48.128;8.320;2024-02-23T04:40:04;2.23;;;1.10;;
12846;SDS011;6492;48.128;8.320;2024-02-23T04:44:07;0.97;;;0.87;;
12846;SDS011;6492;48.128;8.320;2024-02-23T04:48:10;2.17;;;1.27;;
12846;SDS011;6492;48.128;8.320;2024-02-23T04:52:12;3.13;;;1.10;;
12846;SDS011;6492;48.128;8.320;2024-02-23T04:56:14;3.10;;;0.93;;
12846;SDS011;6492;48.128;8.320;2024-02-23T05:00:16;4.70;;;1.33;;
12846;SDS011;6492;48.128;8.320;2024-02-23T05:04:20;2.17;;;0.90;;
12846;SDS011;6492;48.128;8.320;2024-02-23T05:08:22;1.17;;;0.80;;
12846;SDS011;6492;48.128;8.320;2024-02-23T05:12:24;5.43;;;1.00;;
12846;SDS011;6492;48.128;8.320;2024-02-23T05:16:30;4.50;;;1.10;;
12846;SDS011;6492;48.128;8.320;2024-02-23T05:20:33;2.43;;;0.87;;
12846;SDS011;6492;48.128;8.320;2024-02-23T05:24:35;1.83;;;0.70;;
12846;SDS011;6492;48.128;8.320;2024-02-23T05:28:36;2.23;;;0.80;;
12846;SDS011;6492;48.128;8.320;2024-02-23T05:32:38;3.47;;;1.20;;
12846;SDS011;6492;48.128;8.320;2024-02-23T05:36:42;1.40;;;0.90;;
12846;SDS011;6492;48.128;8.320;2024-02-23T05:40:43;5.20;;;1.23;;
12846;SDS011;6492;48.128;8.320;2024-02-23T05:44:45;2.97;;;1.23;;
12846;SDS011;6492;48.128;8.320;2024-02-23T05:48:48;1.63;;;0.90;;
12846;SDS011;6492;48.128;8.320;2024-02-23T05:52:51;0.90;;;0.80;;
12846;SDS011;6492;48.128;8.320;2024-02-23T05:56:53;2.57;;;1.47;;
12846;SDS011;6492;48.128;8.320;2024-02-23T06:00:55;3.63;;;1.00;;
12846;SDS011;6492;48.128;8.320;2024-02-23T06:04:56;4.70;;;1.10;;
12846;SDS011;6492;48.128;8.320;2024-02-23T06:08:59;3.23;;;1.00;;
12846;SDS011;6492;48.128;8.320;2024-02-23T06:17:42;1.80;;;0.90;;
12846;SDS011;6492;48.128;8.320;2024-02-23T06:21:47;2.57;;;1.20;;
12846;SDS011;6492;48.128;8.320;2024-02-23T06:25:50;3.30;;;1.10;;
12846;SDS011;6492;48.128;8.320;2024-02-23T06:29:52;3.00;;;1.10;;
12846;SDS011;6492;48.128;8.320;2024-02-23T06:33:53;5.00;;;1.33;;
12846;SDS011;6492;48.128;8.320;2024-02-23T06:37:55;7.97;;;1.63;;
12846;SDS011;6492;48.128;8.320;2024-02-23T06:41:58;4.07;;;1.30;;
12846;SDS011;6492;48.128;8.320;2024-02-23T06:46:05;3.47;;;1.00;;
12846;SDS011;6492;48.128;8.320;2024-02-23T06:50:08;4.47;;;1.30;;
12846;SDS011;6492;48.128;8.320;2024-02-23T06:54:11;2.20;;;1.40;;
12846;SDS011;6492;48.128;8.320;2024-02-23T06:58:14;4.37;;;1.60;;
12846;SDS011;6492;48.128;8.320;2024-02-23T07:02:16;6.43;;;2.10;;
12846;SDS011;6492;48.128;8.320;2024-02-23T07:06:19;3.57;;;1.40;;
12846;SDS011;6492;48.128;8.320;2024-02-23T07:10:36;1.77;;;1.03;;
12846;SDS011;6492;48.128;8.320;2024-02-23T07:14:39;2.47;;;1.00;;
12846;SDS011;6492;48.128;8.320;2024-02-23T07:18:41;4.60;;;1.40;;
12846;SDS011;6492;48.128;8.320;2024-02-23T07:22:43;5.80;;;1.60;;
12846;SDS011;6492;48.128;8.320;2024-02-23T07:26:46;3.33;;;1.07;;
12846;SDS011;6492;48.128;8.320;2024-02-23T07:30:58;4.70;;;1.23;;
12846;SDS011;6492;48.128;8.320;2024-02-23T07:34:59;3.13;;;1.37;;
12846;SDS011;6492;48.128;8.320;2024-02-23T07:39:07;3.50;;;1.17;;
12846;SDS011;6492;48.128;8.320;2024-02-23T07:43:09;5.87;;;1.37;;
12846;SDS011;6492;48.128;8.320;2024-02-23T07:47:12;7.30;;;1.50;;
12846;SDS011;6492;48.128;8.320;2024-02-23T07:51:14;6.37;;;2.10;;
12846;SDS011;6492;48.128;8.320;2024-02-23T07:55:17;3.43;;;1.10;;
12846;SDS011;6492;48.128;8.320;2024-02-23T07:59:19;4.67;;;1.20;;
12846;SDS011;6492;48.128;8.320;2024-02-23T08:03:22;3.37;;;1.13;;
12846;SDS011;6492;48.128;8.320;2024-02-23T08:07:25;6.27;;;1.30;;
12846;SDS011;6492;48.128;8.320;2024-02-23T08:11:30;10.33;;;3.07;;
12846;SDS011;6492;48.128;8.320;2024-02-23T08:15:32;5.67;;;3.00;;
12846;SDS011;6492;48.128;8.320;2024-02-23T08:24:11;7.33;;;1.67;;
12846;SDS011;6492;48.128;8.320;2024-02-23T08:28:16;6.57;;;2.80;;
12846;SDS011;6492;48.128;8.320;2024-02-23T08:32:18;4.47;;;1.23;;
12846;SDS011;6492;48.128;8.320;2024-02-23T08:36:22;2.67;;;0.90;;
12846;SDS011;6492;48.128;8.320;2024-02-23T08:40:31;2.27;;;1.10;;
12846;SDS011;6492;48.128;8.320;2024-02-23T08:44:39;4.87;;;1.17;;
12846;SDS011;6492;48.128;8.320;2024-02-23T08:48:47;5.23;;;1.40;;
12846;SDS011;6492;48.128;8.320;2024-02-23T08:52:50;2.57;;;1.10;;
12846;SDS011;6492;48.128;8.320;2024-02-23T08:56:52;6.33;;;1.40;;
12846;SDS011;6492;48.128;8.320;2024-02-23T09:00:55;5.07;;;1.40;;
12846;SDS011;6492;48.128;8.320;2024-02-23T09:04:56;4.80;;;1.40;;
12846;SDS011;6492;48.128;8.320;2024-02-23T09:09:00;5.10;;;1.70;;
12846;SDS011;6492;48.128;8.320;2024-02-23T09:13:01;6.07;;;1.70;;
12846;SDS011;6492;48.128;8.320;2024-02-23T09:17:03;3.80;;;1.67;;
12846;SDS011;6492;48.128;8.320;2024-02-23T09:21:08;4.67;;;1.37;;
12846;SDS011;6492;48.128;8.320;2024-02-23T09:25:11;4.03;;;1.60;;
12846;SDS011;6492;48.128;8.320;2024-02-23T09:29:13;2.30;;;1.70;;
12846;SDS011;6492;48.128;8.320;2024-02-23T09:33:17;4.43;;;1.40;;
12846;SDS011;6492;48.128;8.320;2024-02-23T09:37:18;4.57;;;0.93;;
12846;SDS011;6492;48.128;8.320;2024-02-23T09:41:22;4.80;;;1.67;;
12846;SDS011;6492;48.128;8.320;2024-02-23T09:45:24;4.50;;;1.40;;
12846;SDS011;6492;48.128;8.320;2024-02-23T09:49:27;3.40;;;1.50;;
12846;SDS011;6492;48.128;8.320;2024-02-23T09:53:29;5.27;;;1.30;;
12846;SDS011;6492;48.128;8.320;2024-02-23T09:57:32;4.57;;;1.40;;
12846;SDS011;6492;48.128;8.320;2024-02-23T10:01:35;7.47;;;1.43;;
12846;SDS011;6492;48.128;8.320;2024-02-23T10:05:38;6.70;;;1.83;;
12846;SDS011;6492;48.128;8.320;2024-02-23T10:09:39;5.13;;;1.70;;
12846;SDS011;6492;48.128;8.320;2024-02-23T10:13:42;5.17;;;1.37;;
12846;SDS011;6492;48.128;8.320;2024-02-23T10:17:44;6.27;;;1.57;;
12846;SDS011;6492;48.128;8.320;2024-02-23T10:21:46;4.83;;;0.90;;
12846;SDS011;6492;48.128;8.320;2024-02-23T10:25:48;6.53;;;1.20;;
12846;SDS011;6492;48.128;8.320;2024-02-23T10:29:51;4.10;;;1.50;;
12846;SDS011;6492;48.128;8.320;2024-02-23T10:33:53;1.50;;;1.20;;
12846;SDS011;6492;48.128;8.320;2024-02-23T10:37:58;6.20;;;1.47;;
12846;SDS011;6492;48.128;8.320;2024-02-23T10:42:02;6.23;;;2.10;;
12846;SDS011;6492;48.128;8.320;2024-02-23T10:46:07;5.80;;;3.30;;
12846;SDS011;6492;48.128;8.320;2024-02-23T10:50:13;5.90;;;1.83;;
12846;SDS011;6492;48.128;8.320;2024-02-23T10:54:15;5.10;;;1.70;;
12846;SDS011;6492;48.128;8.320;2024-02-23T10:58:20;6.67;;;1.57;;
12846;SDS011;6492;48.128;8.320;2024-02-23T11:02:24;4.03;;;1.03;;
12846;SDS011;6492;48.128;8.320;2024-02-23T11:06:32;5.50;;;1.30;;
12846;SDS011;6492;48.128;8.320;2024-02-23T11:10:41;4.53;;;1.27;;
12846;SDS011;6492;48.128;8.320;2024-02-23T11:14:43;3.73;;;1.27;;
12846;SDS011;6492;48.128;8.320;2024-02-23T11:18:47;3.07;;;0.97;;
12846;SDS011;6492;48.128;8.320;2024-02-23T11:22:48;2.30;;;0.83;;
12846;SDS011;6492;48.128;8.320;2024-02-23T11:26:55;2.17;;;0.97;;
12846;SDS011;6492;48.128;8.320;2024-02-23T11:31:10;1.97;;;0.77;;
12846;SDS011;6492;48.128;8.320;2024-02-23T11:35:15;2.10;;;1.00;;
12846;SDS011;6492;48.128;8.320;2024-02-23T11:39:19;0.83;;;0.50;;
12846;SDS011;6492;48.128;8.320;2024-02-23T11:43:21;1.93;;;1.10;;
12846;SDS011;6492;48.128;8.320;2024-02-23T11:47:23;4.00;;;1.00;;
12846;SDS011;6492;48.128;8.320;2024-02-23T11:51:26;2.70;;;0.93;;
12846;SDS011;6492;48.128;8.320;2024-02-23T11:55:30;4.03;;;1.63;;
12846;SDS011;6492;48.128;8.320;2024-02-23T11:59:32;3.47;;;1.20;;
12846;SDS011;6492;48.128;8.320;2024-02-23T12:03:34;3.87;;;2.17;;
12846;SDS011;6492;48.128;8.320;2024-02-23T12:07:39;3.87;;;1.30;;
12846;SDS011;6492;48.128;8.320;2024-02-23T12:11:56;2.03;;;1.37;;
12846;SDS011;6492;48.128;8.320;2024-02-23T12:15:57;3.90;;;0.90;;
12846;SDS011;6492;48.128;8.320;2024-02-23T12:19:59;3.37;;;1.10;;
12846;SDS011;6492;48.128;8.320;2024-02-23T12:24:05;2.40;;;0.90;;
12846;SDS011;6492;48.128;8.320;2024-02-23T12:28:07;1.77;;;1.10;;
12846;SDS011;6492;48.128;8.320;2024-02-23T12:32:09;2.57;;;1.10;;
12846;SDS011;6492;48.128;8.320;2024-02-23T12:36:11;3.27;;;1.23;;
12846;SDS011;6492;48.128;8.320;2024-02-23T12:40:15;5.13;;;0.93;;
12846;SDS011;6492;48.128;8.320;2024-02-23T12:44:16;1.60;;;0.77;;
12846;SDS011;6492;48.128;8.320;2024-02-23T12:48:18;4.00;;;1.50;;
12846;SDS011;6492;48.128;8.320;2024-02-23T12:52:21;5.53;;;0.90;;
12846;SDS011;6492;48.128;8.320;2024-02-23T12:56:24;2.17;;;0.90;;
12846;SDS011;6492;48.128;8.320;2024-02-23T13:00:26;3.33;;;1.43;;
12846;SDS011;6492;48.128;8.320;2024-02-23T13:04:27;3.27;;;0.93;;
12846;SDS011;6492;48.128;8.320;2024-02-23T13:08:29;2.47;;;1.40;;
12846;SDS011;6492;48.128;8.320;2024-02-23T13:12:33;3.03;;;0.80;;
12846;SDS011;6492;48.128;8.320;2024-02-23T13:16:34;3.00;;;1.37;;
12846;SDS011;6492;48.128;8.320;2024-02-23T13:20:36;1.63;;;0.87;;
12846;SDS011;6492;48.128;8.320;2024-02-23T13:24:38;2.10;;;0.70;;
12846;SDS011;6492;48.128;8.320;2024-02-23T13:28:42;2.23;;;0.93;;
12846;SDS011;6492;48.128;8.320;2024-02-23T13:32:44;4.17;;;1.20;;
12846;SDS011;6492;48.128;8.320;2024-02-23T13:36:46;0.67;;;0.63;;
12846;SDS011;6492;48.128;8.320;2024-02-23T13:40:49;4.10;;;1.07;;
12846;SDS011;6492;48.128;8.320;2024-02-23T13:44:53;2.53;;;1.00;;
12846;SDS011;6492;48.128;8.320;2024-02-23T13:49:01;3.93;;;2.07;;
12846;SDS011;6492;48.128;8.320;2024-02-23T13:53:04;3.30;;;1.20;;
12846;SDS011;6492;48.128;8.320;2024-02-23T13:57:06;4.43;;;1.13;;
12846;SDS011;6492;48.128;8.320;2024-02-23T14:01:09;3.00;;;0.90;;
12846;SDS011;6492;48.128;8.320;2024-02-23T14:05:11;4.57;;;1.17;;
12846;SDS011;6492;48.128;8.320;2024-02-23T14:09:13;2.17;;;1.07;;
12846;SDS011;6492;48.128;8.320;2024-02-23T14:13:15;3.03;;;0.90;;
12846;SDS011;6492;48.128;8.320;2024-02-23T14:17:18;4.27;;;1.10;;
12846;SDS011;6492;48.128;8.320;2024-02-23T14:21:20;3.90;;;1.20;;
12846;SDS011;6492;48.128;8.320;2024-02-23T14:25:22;2.97;;;1.20;;
12846;SDS011;6492;48.128;8.320;2024-02-23T14:29:24;3.90;;;0.90;;
12846;SDS011;6492;48.128;8.320;2024-02-23T14:33:27;2.80;;;1.40;;
12846;SDS011;6492;48.128;8.320;2024-02-23T14:37:29;3.43;;;0.90;;
12846;SDS011;6492;48.128;8.320;2024-02-23T14:41:30;1.40;;;1.20;;
12846;SDS011;6492;48.128;8.320;2024-02-23T14:45:40;4.70;;;1.67;;
12846;SDS011;6492;48.128;8.320;2024-02-23T14:49:44;3.93;;;1.57;;
12846;SDS011;6492;48.128;8.320;2024-02-23T14:53:45;3.03;;;1.17;;
12846;SDS011;6492;48.128;8.320;2024-02-23T14:57:47;2.37;;;1.10;;
12846;SDS011;6492;48.128;8.320;2024-02-23T15:01:49;3.77;;;1.20;;
12846;SDS011;6492;48.128;8.320;2024-02-23T15:05:52;2.63;;;0.90;;
12846;SDS011;6492;48.128;8.320;2024-02-23T15:09:54;3.63;;;1.07;;
12846;SDS011;6492;48.128;8.320;2024-02-23T15:13:55;5.30;;;1.17;;
12846;SDS011;6492;48.128;8.320;2024-02-23T15:17:58;2.30;;;1.13;;
12846;SDS011;6492;48.128;8.320;2024-02-23T15:22:07;2.17;;;0.97;;
12846;SDS011;6492;48.128;8.320;2024-02-23T15:26:14;1.73;;;1.10;;
12846;SDS011;6492;48.128;8.320;2024-02-23T15:30:15;3.47;;;1.30;;
12846;SDS011;6492;48.128;8.320;2024-02-23T15:34:24;3.07;;;1.33;;
12846;SDS011;6492;48.128;8.320;2024-02-23T15:38:27;4.47;;;1.30;;
12846;SDS011;6492;48.128;8.320;2024-02-23T15:42:29;5.47;;;1.30;;
12846;SDS011;6492;48.128;8.320;2024-02-23T15:46:31;2.63;;;1.40;;
12846;SDS011;6492;48.128;8.320;2024-02-23T15:50:33;1.40;;;1.10;;
12846;SDS011;6492;48.128;8.320;2024-02-23T15:54:39;2.73;;;1.00;;
12846;SDS011;6492;48.128;8.320;2024-02-23T15:58:41;1.87;;;1.33;;
12846;SDS011;6492;48.128;8.320;2024-02-23T16:02:42;4.33;;;2.23;;
12846;SDS011;6492;48.128;8.320;2024-02-23T16:06:44;3.40;;;1.40;;
12846;SDS011;6492;48.128;8.320;2024-02-23T16:10:51;2.77;;;1.63;;
12846;SDS011;6492;48.128;8.320;2024-02-23T16:14:53;3.77;;;1.90;;
12846;SDS011;6492;48.128;8.320;2024-02-23T16:18:56;5.67;;;2.00;;
12846;SDS011;6492;48.128;8.320;2024-02-23T16:22:58;2.87;;;2.23;;
12846;SDS011;6492;48.128;8.320;2024-02-23T16:27:15;2.43;;;2.10;;
12846;SDS011;6492;48.128;8.320;2024-02-23T16:31:17;5.33;;;2.30;;
12846;SDS011;6492;48.128;8.320;2024-02-23T16:35:20;4.60;;;2.20;;
12846;SDS011;6492;48.128;8.320;2024-02-23T16:39:24;3.33;;;1.80;;
12846;SDS011;6492;48.128;8.320;2024-02-23T16:43:27;3.37;;;1.70;;
12846;SDS011;6492;48.128;8.320;2024-02-23T16:47:29;1.83;;;1.53;;
12846;SDS011;6492;48.128;8.320;2024-02-23T16:51:31;4.63;;;2.33;;
12846;SDS011;6492;48.128;8.320;2024-02-23T16:55:33;4.43;;;1.70;;
12846;SDS011;6492;48.128;8.320;2024-02-23T16:59:36;5.77;;;2.87;;
12846;SDS011;6492;48.128;8.320;2024-02-23T17:03:37;10.03;;;4.13;;
12846;SDS011;6492;48.128;8.320;2024-02-23T17:07:40;7.33;;;3.03;;
12846;SDS011;6492;48.128;8.320;2024-02-23T17:11:42;7.53;;;2.60;;
12846;SDS011;6492;48.128;8.320;2024-02-23T17:15:46;13.03;;;5.47;;
12846;SDS011;6492;48.128;8.320;2024-02-23T17:19:48;17.00;;;6.53;;
12846;SDS011;6492;48.128;8.320;2024-02-23T17:23:50;12.20;;;7.27;;
12846;SDS011;6492;48.128;8.320;2024-02-23T17:27:52;15.60;;;9.03;;
12846;SDS011;6492;48.128;8.320;2024-02-23T17:31:57;15.33;;;8.80;;
12846;SDS011;6492;48.128;8.320;2024-02-23T17:35:59;6.97;;;3.50;;
12846;SDS011;6492;48.128;8.320;2024-02-23T17:40:01;5.90;;;3.10;;
12846;SDS011;6492;48.128;8.320;2024-02-23T17:44:03;9.93;;;3.63;;
12846;SDS011;6492;48.128;8.320;2024-02-23T17:48:06;5.17;;;3.03;;
12846;SDS011;6492;48.128;8.320;2024-02-23T17:52:08;7.10;;;3.90;;
12846;SDS011;6492;48.128;8.320;2024-02-23T17:56:11;6.63;;;3.40;;
12846;SDS011;6492;48.128;8.320;2024-02-23T18:00:15;7.93;;;4.30;;
12846;SDS011;6492;48.128;8.320;2024-02-23T18:04:19;5.43;;;2.23;;
12846;SDS011;6492;48.128;8.320;2024-02-23T18:08:23;4.40;;;3.13;;
12846;SDS011;6492;48.128;8.320;2024-02-23T18:12:25;4.87;;;2.70;;
12846;SDS011;6492;48.128;8.320;2024-02-23T18:16:27;5.53;;;3.30;;
12846;SDS011;6492;48.128;8.320;2024-02-23T18:20:30;4.07;;;2.07;;
12846;SDS011;6492;48.128;8.320;2024-02-23T18:24:31;6.83;;;2.80;;
12846;SDS011;6492;48.128;8.320;2024-02-23T18:28:33;4.70;;;2.67;;
12846;SDS011;6492;48.128;8.320;2024-02-23T18:32:37;3.23;;;2.60;;
12846;SDS011;6492;48.128;8.320;2024-02-23T18:36:40;7.73;;;2.73;;
12846;SDS011;6492;48.128;8.320;2024-02-23T18:40:44;4.43;;;2.43;;
12846;SDS011;6492;48.128;8.320;2024-02-23T18:44:45;5.90;;;3.30;;
12846;SDS011;6492;48.128;8.320;2024-02-23T18:48:49;7.07;;;4.03;;
12846;SDS011;6492;48.128;8.320;2024-02-23T18:52:52;4.13;;;2.67;;
12846;SDS011;6492;48.128;8.320;2024-02-23T18:56:54;2.70;;;2.17;;
12846;SDS011;6492;48.128;8.320;2024-02-23T19:01:04;5.20;;;2.60;;
12846;SDS011;6492;48.128;8.320;2024-02-23T19:05:09;2.80;;;2.33;;
12846;SDS011;6492;48.128;8.320;2024-02-23T19:09:13;3.13;;;2.20;;
12846;SDS011;6492;48.128;8.320;2024-02-23T19:13:15;3.77;;;1.97;;
12846;SDS011;6492;48.128;8.320;2024-02-23T19:17:17;3.80;;;3.20;;
12846;SDS011;6492;48.128;8.320;2024-02-23T19:21:18;6.03;;;3.60;;
12846;SDS011;6492;48.128;8.320;2024-02-23T19:25:23;2.57;;;1.80;;
12846;SDS011;6492;48.128;8.320;2024-02-23T19:29:24;4.17;;;2.50;;
12846;SDS011;6492;48.128;8.320;2024-02-23T19:33:27;3.30;;;2.03;;
12846;SDS011;6492;48.128;8.320;2024-02-23T19:37:29;4.67;;;1.90;;
12846;SDS011;6492;48.128;8.320;2024-02-23T19:41:33;3.80;;;1.80;;
12846;SDS011;6492;48.128;8.320;2024-02-23T19:45:34;3.27;;;1.60;;
12846;SDS011;6492;48.128;8.320;2024-02-23T19:49:38;5.10;;;2.83;;
12846;SDS011;6492;48.128;8.320;2024-02-23T19:53:40;4.30;;;2.70;;
12846;SDS011;6492;48.128;8.320;2024-02-23T19:57:44;4.43;;;2.37;;
12846;SDS011;6492;48.128;8.320;2024-02-23T20:01:46;2.93;;;2.10;;
12846;SDS011;6492;48.128;8.320;2024-02-23T20:05:48;4.27;;;2.03;;
12846;SDS011;6492;48.128;8.320;2024-02-23T20:09:50;3.07;;;2.40;;
12846;SDS011;6492;48.128;8.320;2024-02-23T20:13:53;2.33;;;1.90;;
12846;SDS011;6492;48.128;8.320;2024-02-23T20:17:55;2.83;;;1.80;;
12846;SDS011;6492;48.128;8.320;2024-02-23T20:22:07;2.33;;;1.90;;
12846;SDS011;6492;48.128;8.320;2024-02-23T20:26:11;4.13;;;2.43;;
12846;SDS011;6492;48.128;8.320;2024-02-23T20:30:15;4.53;;;2.10;;
12846;SDS011;6492;48.128;8.320;2024-02-23T20:34:19;4.07;;;2.43;;
12846;SDS011;6492;48.128;8.320;2024-02-23T20:38:21;3.00;;;2.07;;
12846;SDS011;6492;48.128;8.320;2024-02-23T20:42:23;4.23;;;2.13;;
12846;SDS011;6492;48.128;8.320;2024-02-23T20:46:30;3.57;;;1.73;;
12846;SDS011;6492;48.128;8.320;2024-02-23T20:50:32;2.43;;;2.00;;
12846;SDS011;6492;48.128;8.320;2024-02-23T20:54:34;3.00;;;1.77;;
12846;SDS011;6492;48.128;8.320;2024-02-23T20:58:36;2.63;;;1.80;;
12846;SDS011;6492;48.128;8.320;2024-02-23T21:02:40;4.37;;;2.93;;
12846;SDS011;6492;48.128;8.320;2024-02-23T21:06:42;3.77;;;2.20;;
12846;SDS011;6492;48.128;8.320;2024-02-23T21:10:44;2.17;;;1.87;;
12846;SDS011;6492;48.128;8.320;2024-02-23T21:14:46;2.40;;;1.90;;
12846;SDS011;6492;48.128;8.320;2024-02-23T21:18:51;2.20;;;1.73;;
12846;SDS011;6492;48.128;8.320;2024-02-23T21:22:54;6.13;;;3.07;;
12846;SDS011;6492;48.128;8.320;2024-02-23T21:26:57;3.97;;;2.47;;
12846;SDS011;6492;48.128;8.320;2024-02-23T21:31:07;3.83;;;2.27;;
12846;SDS011;6492;48.128;8.320;2024-02-23T21:35:10;3.03;;;1.70;;
12846;SDS011;6492;48.128;8.320;2024-02-23T21:39:14;4.17;;;2.50;;
12846;SDS011;6492;48.128;8.320;2024-02-23T21:43:18;2.67;;;1.97;;
12846;SDS011;6492;48.128;8.320;2024-02-23T21:47:23;4.27;;;1.90;;
12846;SDS011;6492;48.128;8.320;2024-02-23T21:51:26;2.10;;;1.90;;
12846;SDS011;6492;48.128;8.320;2024-02-23T21:55:28;3.50;;;2.00;;
12846;SDS011;6492;48.128;8.320;2024-02-23T21:59:30;2.77;;;1.70;;
12846;SDS011;6492;48.128;8.320;2024-02-23T22:03:32;3.00;;;2.00;;
12846;SDS011;6492;48.128;8.320;2024-02-23T22:07:36;1.77;;;1.50;;
12846;SDS011;6492;48.128;8.320;2024-02-23T22:11:38;4.80;;;2.17;;
12846;SDS011;6492;48.128;8.320;2024-02-23T22:15:41;4.80;;;2.73;;
12846;SDS011;6492;48.128;8.320;2024-02-23T22:19:43;3.53;;;2.23;;
12846;SDS011;6492;48.128;8.320;2024-02-23T22:23:46;6.07;;;3.33;;
12846;SDS011;6492;48.128;8.320;2024-02-23T22:27:48;3.07;;;2.10;;
12846;SDS011;6492;48.128;8.320;2024-02-23T22:31:50;6.40;;;3.40;;
12846;SDS011;6492;48.128;8.320;2024-02-23T22:35:52;3.90;;;2.47;;
12846;SDS011;6492;48.128;8.320;2024-02-23T22:39:55;4.90;;;3.60;;
12846;SDS011;6492;48.128;8.320;2024-02-23T22:43:59;3.67;;;2.53;;
12846;SDS011;6492;48.128;8.320;2024-02-23T22:48:01;2.77;;;1.87;;
12846;SDS011;6492;48.128;8.320;2024-02-23T22:52:03;3.80;;;2.10;;
12846;SDS011;6492;48.128;8.320;2024-02-23T22:56:07;2.83;;;2.10;;
12846;SDS011;6492;48.128;8.320;2024-02-23T23:00:09;2.63;;;1.63;;
12846;SDS011;6492;48.128;8.320;2024-02-23T23:04:13;2.20;;;1.60;;
12846;SDS011;6492;48.128;8.320;2024-02-23T23:08:15;3.40;;;1.40;;
12846;SDS011;6492;48.128;8.320;2024-02-23T23:12:18;1.93;;;1.37;;
12846;SDS011;6492;48.128;8.320;2024-02-23T23:16:20;2.43;;;1.53;;
12846;SDS011;6492;48.128;8.320;2024-02-23T23:20:22;2.20;;;1.10;;
12846;SDS011;6492;48.128;8.320;2024-02-23T23:24:24;1.70;;;1.37;;
12846;SDS011;6492;48.128;8.320;2024-02-23T23:28:27;2.03;;;1.10;;
12846;SDS011;6492;48.128;8.320;2024-02-23T23:32:29;2.40;;;1.43;;
12846;SDS011;6492;48.128;8.320;2024-02-23T23:36:33;1.57;;;1.20;;
12846;SDS011;6492;48.128;8.320;2024-02-23T23:40:35;1.73;;;1.23;;
12846;SDS011;6492;48.128;8.320;2024-02-23T23:44:38;2.03;;;1.30;;
12846;SDS011;6492;48.128;8.320;2024-02-23T23:48:40;1.83;;;1.07;;
12846;SDS011;6492;48.128;8.320;2024-02-23T23:52:41;1.50;;;1.20;;
12846;SDS011;6492;48.128;8.320;2024-02-23T23:56:43;1.70;;;1.27;;
